createdAt,value
2023-04-20T00:02:05.093Z,8.54
2023-04-20T00:05:08.893Z,8.39
2023-04-20T00:08:11.548Z,8.60
2023-04-20T00:11:15.533Z,8.71
2023-04-20T00:14:18.196Z,8.74
2023-04-20T00:17:20.914Z,8.73
2023-04-20T00:20:24.495Z,8.49
2023-04-20T00:23:27.113Z,8.59
2023-04-20T00:26:31.195Z,8.18
2023-04-20T00:29:34.228Z,8.22
2023-04-20T00:32:36.852Z,8.43
2023-04-20T00:35:39.504Z,8.46
2023-04-20T00:38:42.200Z,8.34
2023-04-20T00:41:46.236Z,8.63
2023-04-20T00:44:50.384Z,8.16
2023-04-20T00:47:52.992Z,8.07
2023-04-20T00:50:56.077Z,8.05
2023-04-20T00:53:59.235Z,8.15
2023-04-20T00:57:03.968Z,8.02
2023-04-20T01:00:08.197Z,7.91
2023-04-20T01:03:10.968Z,7.94
2023-04-20T01:06:14.679Z,7.93
2023-04-20T01:09:17.524Z,7.82
2023-04-20T01:12:22.117Z,7.75
2023-04-20T01:15:24.962Z,7.75
2023-04-20T01:18:27.715Z,7.83
2023-04-20T01:21:31.042Z,7.72
2023-04-20T01:24:35.129Z,7.86
2023-04-20T01:27:37.794Z,7.77
2023-04-20T01:30:40.482Z,7.84
2023-04-20T01:33:43.132Z,7.85
2023-04-20T01:36:46.190Z,7.78
2023-04-20T01:39:50.272Z,7.85
2023-04-20T01:42:52.960Z,7.75
2023-04-20T01:45:55.594Z,7.83
2023-04-20T01:48:58.268Z,7.65
2023-04-20T01:52:00.994Z,7.73
2023-04-20T01:55:05.422Z,7.73
2023-04-20T01:58:08.029Z,7.78
2023-04-20T02:01:10.708Z,7.86
2023-04-20T02:04:13.395Z,7.92
2023-04-20T02:07:16.045Z,7.91
2023-04-20T02:10:20.210Z,7.92
2023-04-20T02:13:22.879Z,7.84
2023-04-20T02:16:25.615Z,7.88
2023-04-20T02:19:28.282Z,7.78
2023-04-20T02:22:34.881Z,7.74
2023-04-20T02:25:39.228Z,7.57
2023-04-20T02:28:41.882Z,7.85
2023-04-20T02:31:44.691Z,7.89
2023-04-20T02:34:47.453Z,7.85
2023-04-20T02:37:50.160Z,7.78
2023-04-20T02:40:54.275Z,7.91
2023-04-20T02:43:56.899Z,7.99
2023-04-20T02:46:59.535Z,7.90
2023-04-20T02:50:02.263Z,7.95
2023-04-20T02:53:05.065Z,8.13
2023-04-20T02:56:09.169Z,7.99
2023-04-20T02:59:12.210Z,7.88
2023-04-20T03:02:15.025Z,7.92
2023-04-20T03:05:17.726Z,7.97
2023-04-20T03:08:20.812Z,8.02
2023-04-20T03:11:25.367Z,8.04
2023-04-20T03:14:28.065Z,8.10
2023-04-20T03:17:30.764Z,8.19
2023-04-20T03:20:33.487Z,7.99
2023-04-20T03:23:36.144Z,8.00
2023-04-20T03:26:40.356Z,8.13
2023-04-20T03:29:43.029Z,8.07
2023-04-20T03:32:45.746Z,8.02
2023-04-20T03:35:48.454Z,8.02
2023-04-20T03:38:51.094Z,8.16
2023-04-20T03:41:55.063Z,8.07
2023-04-20T03:44:57.803Z,8.03
2023-04-20T03:48:00.526Z,7.99
2023-04-20T03:51:03.204Z,7.72
2023-04-20T03:54:06.527Z,7.85
2023-04-20T03:57:10.548Z,7.85
2023-04-20T04:00:14.273Z,7.83
2023-04-20T04:03:17.295Z,7.74
2023-04-20T04:06:20.159Z,7.79
2023-04-20T04:09:22.819Z,7.49
2023-04-20T04:12:26.838Z,7.53
2023-04-20T04:15:29.520Z,7.42
2023-04-20T04:18:32.598Z,7.59
2023-04-20T04:21:35.577Z,7.56
2023-04-20T04:24:38.966Z,7.49
2023-04-20T04:27:43.178Z,7.11
2023-04-20T04:30:45.908Z,7.29
2023-04-20T04:33:49.554Z,7.09
2023-04-20T04:36:52.514Z,7.08
2023-04-20T04:39:55.382Z,7.08
2023-04-20T04:43:00.305Z,6.90
2023-04-20T04:46:07.950Z,7.19
2023-04-20T04:49:11.504Z,7.30
2023-04-20T04:52:14.609Z,6.84
2023-04-20T04:55:17.419Z,7.05
2023-04-20T04:58:21.457Z,7.25
2023-04-20T05:01:24.138Z,7.05
2023-04-20T05:04:26.869Z,6.84
2023-04-20T05:07:29.537Z,7.02
2023-04-20T05:10:32.221Z,7.09
2023-04-20T05:13:36.174Z,7.26
2023-04-20T05:16:38.929Z,7.08
2023-04-20T05:19:41.667Z,7.00
2023-04-20T05:22:44.621Z,7.08
2023-04-20T05:25:47.247Z,7.06
2023-04-20T05:28:51.482Z,7.25
2023-04-20T05:31:54.186Z,7.16
2023-04-20T05:34:58.181Z,6.88
2023-04-20T05:38:06.106Z,7.05
2023-04-20T05:41:08.780Z,7.20
2023-04-20T05:44:12.881Z,7.30
2023-04-20T05:47:15.945Z,7.12
2023-04-20T05:50:18.596Z,7.14
2023-04-20T05:53:21.708Z,7.01
2023-04-20T05:56:24.369Z,6.91
2023-04-20T05:59:28.539Z,6.85
2023-04-20T06:02:31.300Z,7.12
2023-04-20T06:05:34.245Z,7.02
2023-04-20T06:08:37.266Z,6.95
2023-04-20T06:11:39.961Z,7.31
2023-04-20T06:14:43.934Z,7.48
2023-04-20T06:17:46.677Z,7.20
2023-04-20T06:20:49.307Z,7.32
2023-04-20T06:23:51.934Z,7.41
2023-04-20T06:26:54.863Z,7.45
2023-04-20T06:29:58.885Z,7.55
2023-04-20T06:33:01.696Z,7.40
2023-04-20T06:36:07.756Z,7.71
2023-04-20T06:39:11.273Z,7.73
2023-04-20T06:42:15.974Z,7.35
2023-04-20T06:45:20.387Z,7.49
2023-04-20T06:48:30.860Z,7.62
2023-04-20T06:51:34.648Z,7.63
2023-04-20T06:54:37.298Z,7.70
2023-04-20T06:57:40.010Z,7.42
2023-04-20T07:00:44.181Z,7.41
2023-04-20T07:03:47.372Z,7.62
2023-04-20T07:06:53.777Z,7.66
2023-04-20T07:09:56.829Z,7.77
2023-04-20T07:12:59.447Z,7.70
2023-04-20T07:16:03.592Z,7.65
2023-04-20T07:19:06.291Z,7.83
2023-04-20T07:22:08.915Z,7.56
2023-04-20T07:25:11.903Z,7.72
2023-04-20T07:28:14.588Z,7.79
2023-04-20T07:31:18.653Z,7.78
2023-04-20T07:34:22.102Z,7.79
2023-04-20T07:37:27.195Z,7.90
2023-04-20T07:40:30.292Z,8.15
2023-04-20T07:43:32.959Z,7.97
2023-04-20T07:46:37.035Z,7.91
2023-04-20T07:49:40.835Z,7.83
2023-04-20T07:52:44.346Z,7.68
2023-04-20T07:55:47.769Z,7.71
2023-04-20T07:58:51.765Z,7.75
2023-04-20T08:02:01.212Z,7.64
2023-04-20T08:05:04.408Z,7.85
2023-04-20T08:08:07.564Z,7.86
2023-04-20T08:11:10.357Z,7.95
2023-04-20T08:14:13.285Z,8.01
2023-04-20T08:17:17.315Z,7.86
2023-04-20T08:20:20.243Z,7.77
2023-04-20T08:23:27.608Z,7.68
2023-04-20T08:26:30.285Z,7.75
2023-04-20T08:29:32.911Z,7.88
2023-04-20T08:32:36.934Z,8.01
2023-04-20T08:35:39.650Z,7.86
2023-04-20T08:38:42.312Z,7.86
2023-04-20T08:41:45.013Z,8.10
2023-04-20T08:44:47.667Z,8.24
2023-04-20T08:47:52.398Z,8.44
2023-04-20T08:50:55.845Z,8.38
2023-04-20T08:54:05.238Z,8.60
2023-04-20T08:57:07.996Z,8.57
2023-04-20T09:00:13.583Z,8.54
2023-04-20T09:03:18.479Z,8.51
2023-04-20T09:06:23.376Z,8.87
2023-04-20T09:09:27.015Z,8.96
2023-04-20T09:12:29.800Z,8.81
2023-04-20T09:15:33.127Z,8.88
2023-04-20T09:18:37.766Z,8.82
2023-04-20T09:21:49.773Z,8.95
2023-04-20T09:24:52.479Z,8.93
2023-04-20T09:27:59.080Z,8.70
2023-04-20T09:31:01.869Z,8.82
2023-04-20T09:34:05.876Z,8.95
2023-04-20T09:37:10.373Z,9.02
2023-04-20T09:40:15.155Z,9.09
2023-04-20T09:43:20.615Z,9.22
2023-04-20T09:46:23.803Z,9.45
2023-04-20T09:49:28.511Z,9.78
2023-04-20T09:52:31.771Z,10.09
2023-04-20T09:55:34.854Z,10.06
2023-04-20T09:58:38.849Z,10.26
2023-04-20T10:01:41.667Z,9.96
2023-04-20T10:04:55.038Z,9.80
2023-04-20T10:08:01.067Z,9.97
2023-04-20T10:11:03.744Z,9.82
2023-04-20T10:14:18.111Z,9.91
2023-04-20T10:17:31.586Z,9.66
2023-04-20T10:20:35.774Z,9.86
2023-04-20T10:23:49.013Z,9.98
2023-04-20T10:26:51.627Z,9.83
2023-04-20T10:29:54.364Z,10.10
2023-04-20T10:33:04.954Z,10.26
2023-04-20T10:36:09.116Z,10.29
2023-04-20T10:39:19.403Z,10.35
2023-04-20T10:42:22.443Z,10.50
2023-04-20T10:45:36.314Z,10.41
2023-04-20T10:48:39.110Z,10.61
2023-04-20T10:51:49.691Z,10.82
2023-04-20T10:54:52.380Z,10.80
2023-04-20T10:57:55.053Z,10.88
2023-04-20T11:01:02.504Z,10.61
2023-04-20T11:04:05.232Z,10.31
2023-04-20T11:07:11.090Z,10.48
2023-04-20T11:10:13.764Z,10.69
2023-04-20T11:13:25.266Z,10.68
2023-04-20T11:16:40.210Z,10.58
2023-04-20T11:19:47.813Z,10.70
2023-04-20T11:22:58.513Z,10.32
2023-04-20T11:26:01.144Z,10.47
2023-04-20T11:29:03.871Z,10.26
2023-04-20T11:32:08.441Z,9.82
2023-04-20T11:35:12.343Z,10.17
2023-04-20T11:38:18.744Z,10.20
2023-04-20T11:41:21.631Z,10.06
2023-04-20T11:44:24.511Z,10.12
2023-04-20T11:47:27.373Z,10.08
2023-04-20T11:50:30.278Z,10.38
2023-04-20T11:53:34.681Z,10.08
2023-04-20T11:56:38.038Z,10.28
2023-04-20T11:59:42.850Z,9.99
2023-04-20T12:02:45.706Z,10.12
2023-04-20T12:05:48.543Z,10.13
2023-04-20T12:08:52.646Z,10.32
2023-04-20T12:11:55.447Z,10.13
2023-04-20T12:14:58.129Z,10.22
2023-04-20T12:18:00.822Z,10.19
2023-04-20T12:21:03.459Z,10.06
2023-04-20T12:24:07.803Z,10.11
2023-04-20T12:27:10.919Z,10.07
2023-04-20T12:30:14.704Z,10.00
2023-04-20T12:33:17.493Z,10.18
2023-04-20T12:36:20.193Z,10.18
2023-04-20T12:39:24.775Z,10.43
2023-04-20T12:42:27.449Z,10.26
2023-04-20T12:45:31.056Z,10.59
2023-04-20T12:48:33.694Z,10.34
2023-04-20T12:51:36.376Z,10.37
2023-04-20T12:54:42.704Z,10.53
2023-04-20T12:57:46.537Z,10.68
2023-04-20T13:00:49.179Z,11.09
2023-04-20T13:03:52.182Z,10.74
2023-04-20T13:06:55.701Z,10.50
2023-04-20T13:10:00.782Z,10.73
2023-04-20T13:13:03.636Z,11.05
2023-04-20T13:16:06.987Z,11.30
2023-04-20T13:19:09.646Z,11.10
2023-04-20T13:22:15.743Z,11.27
2023-04-20T13:25:21.471Z,11.23
2023-04-20T13:28:25.576Z,11.40
2023-04-20T13:31:28.236Z,11.08
2023-04-20T13:34:30.937Z,10.99
2023-04-20T13:37:33.964Z,11.10
2023-04-20T13:40:38.020Z,10.91
2023-04-20T13:43:40.717Z,11.04
2023-04-20T13:46:44.344Z,10.95
2023-04-20T13:49:46.957Z,10.68
2023-04-20T13:52:50.345Z,10.62
2023-04-20T13:55:54.412Z,11.04
2023-04-20T13:58:57.052Z,11.02
2023-04-20T14:01:59.826Z,10.97
2023-04-20T14:05:03.888Z,10.93
2023-04-20T14:08:07.325Z,11.13
2023-04-20T14:11:11.571Z,11.35
2023-04-20T14:14:14.308Z,11.38
2023-04-20T14:17:16.971Z,11.51
2023-04-20T14:20:20.001Z,11.67
2023-04-20T14:23:22.698Z,11.65
2023-04-20T14:26:27.432Z,11.72
2023-04-20T14:29:30.283Z,11.55
2023-04-20T14:32:33.072Z,11.59
2023-04-20T14:35:35.736Z,11.69
2023-04-20T14:38:38.615Z,11.70
2023-04-20T14:41:42.631Z,11.87
2023-04-20T14:44:45.314Z,11.89
2023-04-20T14:47:48.009Z,11.89
2023-04-20T14:50:50.687Z,11.59
2023-04-20T14:53:53.341Z,11.78
2023-04-20T14:56:57.375Z,12.06
2023-04-20T15:00:00.008Z,12.20
2023-04-20T15:03:02.933Z,12.17
2023-04-20T15:06:05.962Z,12.35
2023-04-20T15:09:08.999Z,12.35
2023-04-20T15:12:13.048Z,12.41
2023-04-20T15:15:16.140Z,12.39
2023-04-20T15:18:19.765Z,12.30
2023-04-20T15:21:23.462Z,12.57
2023-04-20T15:24:26.062Z,12.61
2023-04-20T15:27:30.443Z,12.38
2023-04-20T15:30:33.281Z,12.58
2023-04-20T15:33:35.955Z,12.60
2023-04-20T15:36:38.604Z,12.51
2023-04-20T15:39:41.228Z,12.67
2023-04-20T15:42:45.211Z,12.67
2023-04-20T15:45:47.964Z,12.74
2023-04-20T15:48:50.693Z,12.80
2023-04-20T15:51:53.311Z,12.89
2023-04-20T15:54:55.974Z,13.10
2023-04-20T15:58:00.302Z,13.20
2023-04-20T16:01:03.698Z,13.16
2023-04-20T16:04:06.577Z,13.18
2023-04-20T16:07:09.849Z,13.18
2023-04-20T16:10:12.524Z,13.17
2023-04-20T16:13:16.496Z,13.08
2023-04-20T16:16:19.261Z,13.04
2023-04-20T16:19:22.024Z,12.97
2023-04-20T16:22:24.699Z,12.91
2023-04-20T16:25:28.348Z,13.05
2023-04-20T16:28:32.430Z,12.88
2023-04-20T16:31:36.699Z,12.77
2023-04-20T16:34:39.335Z,12.68
2023-04-20T16:37:42.080Z,12.78
2023-04-20T16:40:44.766Z,12.79
2023-04-20T16:43:48.802Z,12.75
2023-04-20T16:46:51.828Z,12.59
2023-04-20T16:49:54.497Z,12.58
2023-04-20T16:52:57.163Z,12.40
2023-04-20T16:55:59.875Z,12.19
2023-04-20T16:59:04.107Z,12.30
2023-04-20T17:02:06.845Z,12.12
2023-04-20T17:05:10.192Z,11.90
2023-04-20T17:08:13.030Z,11.60
2023-04-20T17:11:16.053Z,11.79
2023-04-20T17:14:20.494Z,11.81
2023-04-20T17:17:23.413Z,11.74
2023-04-20T17:20:26.147Z,11.64
2023-04-20T17:23:28.880Z,11.66
2023-04-20T17:26:31.486Z,11.57
2023-04-20T17:29:38.267Z,11.42
2023-04-20T17:32:41.021Z,11.22
2023-04-20T17:35:45.595Z,11.31
2023-04-20T17:38:48.267Z,11.33
2023-04-20T17:41:51.151Z,11.41
2023-04-20T17:44:55.166Z,11.39
2023-04-20T17:47:57.898Z,11.30
2023-04-20T17:51:00.623Z,11.33
2023-04-20T17:54:03.310Z,11.25
2023-04-20T17:57:06.875Z,11.26
2023-04-20T18:00:12.786Z,11.29
2023-04-20T18:03:15.683Z,11.36
2023-04-20T18:06:18.490Z,11.35
2023-04-20T18:09:21.191Z,11.36
2023-04-20T18:12:23.896Z,11.13
2023-04-20T18:15:28.020Z,11.25
2023-04-20T18:18:30.694Z,11.16
2023-04-20T18:21:34.661Z,11.22
2023-04-20T18:24:37.864Z,11.21
2023-04-20T18:27:40.640Z,11.14
2023-04-20T18:30:44.671Z,11.17
2023-04-20T18:33:47.319Z,11.07
2023-04-20T18:36:49.972Z,10.97
2023-04-20T18:39:52.565Z,10.89
2023-04-20T18:42:55.312Z,10.82
2023-04-20T18:45:59.400Z,10.30
2023-04-20T18:49:02.063Z,10.54
2023-04-20T18:52:12.111Z,10.52
2023-04-20T18:55:14.810Z,10.70
2023-04-20T18:58:17.457Z,10.69
2023-04-20T19:01:21.507Z,10.53
2023-04-20T19:04:24.268Z,10.47
2023-04-20T19:07:26.990Z,10.35
2023-04-20T19:10:29.629Z,10.44
2023-04-20T19:13:32.325Z,10.48
2023-04-20T19:16:36.531Z,10.38
2023-04-20T19:19:39.252Z,10.46
2023-04-20T19:22:41.874Z,10.34
2023-04-20T19:25:44.622Z,10.29
2023-04-20T19:28:47.274Z,10.33
2023-04-20T19:31:51.666Z,10.33
2023-04-20T19:34:57.306Z,10.34
2023-04-20T19:38:00.341Z,10.30
2023-04-20T19:41:03.026Z,10.17
2023-04-20T19:44:06.386Z,10.13
2023-04-20T19:47:10.526Z,10.13
2023-04-20T19:50:13.912Z,10.00
2023-04-20T19:53:16.594Z,10.07
2023-04-20T19:56:19.382Z,10.14
2023-04-20T19:59:22.042Z,9.72
2023-04-20T20:02:26.437Z,9.99
2023-04-20T20:05:29.342Z,9.64
2023-04-20T20:08:32.231Z,9.85
2023-04-20T20:11:34.883Z,9.99
2023-04-20T20:14:37.858Z,9.81
2023-04-20T20:17:41.980Z,10.10
2023-04-20T20:20:44.693Z,10.04
2023-04-20T20:23:47.409Z,9.85
2023-04-20T20:26:50.064Z,9.75
2023-04-20T20:29:52.698Z,9.71
2023-04-20T20:32:58.755Z,9.88
2023-04-20T20:36:03.525Z,9.78
2023-04-20T20:39:06.633Z,9.90
2023-04-20T20:42:10.253Z,9.85
2023-04-20T20:45:13.829Z,9.89
2023-04-20T20:48:17.862Z,9.83
2023-04-20T20:51:20.497Z,9.80
2023-04-20T20:54:23.460Z,9.91
2023-04-20T20:57:26.069Z,9.81
2023-04-20T21:00:28.736Z,9.69
2023-04-20T21:03:33.063Z,9.65
2023-04-20T21:06:36.075Z,9.76
2023-04-20T21:09:38.736Z,9.80
2023-04-20T21:12:41.382Z,9.66
2023-04-20T21:15:44.045Z,9.74
2023-04-20T21:18:48.038Z,9.82
2023-04-20T21:21:50.775Z,9.96
2023-04-20T21:24:53.380Z,9.94
2023-04-20T21:27:56.048Z,9.82
2023-04-20T21:30:58.663Z,9.75
2023-04-20T21:34:02.719Z,9.80
2023-04-20T21:37:05.733Z,9.66
2023-04-20T21:40:10.072Z,9.67
2023-04-20T21:43:12.781Z,9.64
2023-04-20T21:46:15.795Z,9.67
2023-04-20T21:49:20.282Z,9.50
2023-04-20T21:52:23.953Z,9.55
2023-04-20T21:55:26.817Z,9.69
2023-04-20T21:58:29.448Z,9.70
2023-04-20T22:01:32.238Z,9.81
2023-04-20T22:04:36.384Z,9.79
2023-04-20T22:07:39.308Z,9.64
2023-04-20T22:10:42.006Z,9.58
2023-04-20T22:13:45.287Z,9.57
2023-04-20T22:16:47.958Z,9.39
2023-04-20T22:19:51.959Z,9.41
2023-04-20T22:22:54.641Z,9.27
2023-04-20T22:25:57.275Z,9.22
2023-04-20T22:28:59.919Z,9.44
2023-04-20T22:32:02.801Z,9.44
2023-04-20T22:35:07.713Z,9.21
2023-04-20T22:38:10.490Z,9.24
2023-04-20T22:41:14.355Z,9.21
2023-04-20T22:44:18.593Z,9.18
2023-04-20T22:47:21.309Z,9.02
2023-04-20T22:50:25.664Z,9.05
2023-04-20T22:53:29.731Z,8.79
2023-04-20T22:56:33.311Z,8.61
2023-04-20T22:59:35.961Z,8.86
2023-04-20T23:02:38.912Z,8.81
2023-04-20T23:05:44.298Z,8.77
2023-04-20T23:08:46.947Z,8.87
2023-04-20T23:11:49.644Z,8.94
2023-04-20T23:14:53.808Z,8.86
2023-04-20T23:17:57.203Z,8.69
2023-04-20T23:21:01.688Z,8.63
2023-04-20T23:24:04.577Z,8.52
2023-04-20T23:27:07.243Z,8.63
2023-04-20T23:30:10.667Z,8.58
2023-04-20T23:33:13.369Z,8.77
2023-04-20T23:36:17.498Z,8.75
2023-04-20T23:39:20.547Z,8.45
2023-04-20T23:42:23.386Z,8.47
2023-04-20T23:45:26.257Z,8.42
2023-04-20T23:48:28.935Z,8.57
2023-04-20T23:51:32.942Z,8.65
2023-04-20T23:54:35.616Z,8.64
2023-04-20T23:57:38.331Z,8.77
